Flight Track Log - Related Links

Times and Time Zones

All times are in EDT time to prevent confusion due to time zone crossing. See the CPZ5830 flight status page for this flight to view local times or setup timezone preferences in your user account.

Time Position Orientation Groundspeed Altitude Reporting Facility
EDT Latitude Longitude Course Direction KTS MPH feet Rate Location/Type
Mon 05:23:48 PM 32.8833 -97.0333 357° North 149 171 1,000  Level Dallas / Fort Worth TRACON
Mon 05:24:42 PM 32.8500 -97.0167 157° South 178 205 2,300 1,684 Climbing Dallas / Fort Worth TRACON
Mon 05:25:42 PM 32.8000 -97.0000 164° South 237 273 4,200 2,450 Climbing Dallas / Fort Worth TRACON
Mon 05:26:42 PM 32.7667 -96.9333 121° Southeast 256 295 7,200 2,750 Climbing Dallas / Fort Worth TRACON
Mon 05:27:00 PM 32.9688 -96.8000 North  Level FlightAware Approximate
Mon 05:27:42 PM 32.7833 -96.8333 79° East 299 344 9,700  Level Dallas / Fort Worth TRACON
Mon 05:28:00 PM 33.0903 -96.8015 357° North  Level FlightAware Approximate
Mon 05:29:00 PM 33.2116 -96.8090 357° North  Level FlightAware Approximate
Mon 05:30:05 PM 32.9906 -96.8117 North 342 394 14,300  Level Fort Worth Center
Mon 05:31:05 PM 33.1056 -96.8158 358° North 367 422 16,400 1,900 Climbing Fort Worth Center
Mon 05:32:05 PM 33.2014 -96.8175 359° North 378 435 18,100 1,850 Climbing Fort Worth Center
Mon 05:33:05 PM 33.3225 -96.8217 358° North 389 448 20,100 1,750 Climbing Fort Worth Center
Mon 05:34:05 PM 33.4228 -96.8236 359° North 395 455 21,600 1,450 Climbing Fort Worth Center
Mon 05:35:05 PM 33.5481 -96.8203 North 409 471 23,000 1,400 Climbing Fort Worth Center
Mon 05:36:05 PM 33.6647 -96.7844 14° North 414 476 24,400 1,350 Climbing Fort Worth Center
Mon 05:37:05 PM 33.7750 -96.7364 20° North 414 476 25,700 1,250 Climbing Fort Worth Center
Mon 05:38:05 PM 33.8875 -96.6878 20° North 425 489 26,900 1,050 Climbing Fort Worth Center
Mon 05:39:05 PM 34.0039 -96.6394 19° North 425 489 27,800 900 Climbing Fort Worth Center
Mon 05:40:05 PM 34.1058 -96.5733 28° Northeast 425 489 28,700 1,000 Climbing Fort Worth Center
Mon 05:41:05 PM 34.2011 -96.4719 41° Northeast 425 489 29,800 1,100 Climbing Fort Worth Center
Mon 05:42:05 PM 34.2942 -96.3753 41° Northeast 431 496 30,900 1,100 Climbing Fort Worth Center
Mon 05:43:05 PM 34.3853 -96.2786 41° Northeast 436 502 32,000 1,100 Climbing Fort Worth Center
Mon 05:44:05 PM 34.4803 -96.1792 41° Northeast 436 502 33,100 1,200 Climbing Fort Worth Center
Mon 05:45:05 PM 34.5689 -96.0819 42° Northeast 436 502 34,400 950 Climbing Fort Worth Center
Mon 05:46:05 PM 34.6769 -96.0297 22° Northeast 411 473 35,000 300 Climbing Fort Worth Center
Mon 05:47:05 PM 34.7956 -96.0078 North 422 486 35,000  Level Fort Worth Center
Mon 05:48:05 PM 34.9122 -95.9856 North 417 480 35,000  Level Fort Worth Center
Mon 05:49:05 PM 35.0308 -95.9581 11° North 422 486 35,000  Level Fort Worth Center
Mon 05:50:05 PM 35.1494 -95.9358 North 427 491 35,000  Level Fort Worth Center
Mon 05:52:15 PM 35.3908 -95.8883 North 428 493 35,000  Level Kansas City Center
Mon 05:53:17 PM 35.5081 -95.8642 10° North 426 490 35,000  Level Kansas City Center
Mon 05:54:19 PM 35.6497 -95.8361 North 428 493 35,000  Level Kansas City Center
Mon 05:55:21 PM 35.7683 -95.8125 North 430 495 35,000  Level Kansas City Center
Mon 05:56:23 PM 35.8864 -95.7886 North 429 494 35,000  Level Kansas City Center
Mon 05:57:25 PM 36.0047 -95.7656 North 427 491 35,000  Level Kansas City Center
Mon 05:58:27 PM 36.1358 -95.7378 10° North 432 497 35,000  Level Kansas City Center
Mon 05:59:29 PM 36.2556 -95.7144 North 436 502 35,000  Level Kansas City Center
Mon 06:00:31 PM 36.3750 -95.6914 North 436 502 35,000  Level Kansas City Center
Mon 06:01:33 PM 36.4964 -95.6667 North 440 506 35,000  Level Kansas City Center
Mon 06:02:35 PM 36.6142 -95.6431 North 441 507 35,000  Level Kansas City Center
Mon 06:03:37 PM 36.7611 -95.6119 10° North 441 507 35,000  Level Kansas City Center
Mon 06:04:39 PM 36.8828 -95.5861 10° North 441 507 35,000  Level Kansas City Center
Mon 06:05:41 PM 37.0056 -95.5606 North 442 509 35,000  Level Kansas City Center
Mon 06:06:43 PM 37.1289 -95.5350 North 445 512 35,000  Level Kansas City Center
Mon 06:07:45 PM 37.2508 -95.5094 North 445 512 35,000  Level Kansas City Center
Mon 06:08:47 PM 37.3739 -95.4839 North 445 512 35,000  Level Kansas City Center
Mon 06:09:49 PM 37.4972 -95.4575 10° North 448 516 35,000  Level Kansas City Center
Mon 06:10:51 PM 37.6453 -95.4261 10° North 449 517 35,000  Level Kansas City Center
Mon 06:11:53 PM 37.7697 -95.4011 North 450 518 35,000  Level Kansas City Center
Mon 06:12:55 PM 37.8928 -95.3728 10° North 450 518 35,000  Level Kansas City Center
Mon 06:13:57 PM 38.0278 -95.3461 North 450 518 35,000  Level Kansas City Center
Mon 06:14:59 PM 38.1461 -95.3194 10° North 452 520 35,000  Level Kansas City Center
Mon 06:16:01 PM 38.2639 -95.2919 10° North 450 518 35,000  Level Kansas City Center
Mon 06:17:03 PM 38.4006 -95.2625 10° North 447 514 35,000  Level Kansas City Center
Mon 06:18:05 PM 38.5189 -95.2367 10° North 449 517 35,000  Level Kansas City Center
Mon 06:19:07 PM 38.6553 -95.2064 10° North 447 514 35,000  Level Kansas City Center
Mon 06:20:09 PM 38.7733 -95.1825 North 448 516 35,000  Level Kansas City Center
Mon 06:21:11 PM 38.9092 -95.1519 10° North 446 513 35,000  Level Kansas City Center
Mon 06:22:13 PM 39.0431 -95.1228 10° North 449 517 35,000  Level Kansas City Center
Mon 06:23:15 PM 39.1631 -95.0944 10° North 454 522 35,000  Level Kansas City Center
Mon 06:24:17 PM 39.3014 -95.0653 North 461 531 35,000  Level Kansas City Center
Mon 06:25:19 PM 39.4208 -95.0400 North 460 529 35,000  Level Kansas City Center
Mon 06:26:21 PM 39.5408 -95.0136 10° North 459 528 35,000  Level Kansas City Center
Mon 06:27:23 PM 39.6808 -94.9825 10° North 456 525 35,000  Level Kansas City Center
Mon 06:28:25 PM 39.8006 -94.9553 10° North 457 526 35,000  Level Kansas City Center
Mon 06:29:27 PM 39.9422 -94.9236 10° North 454 522 35,000  Level Kansas City Center
Mon 06:30:29 PM 40.0589 -94.8969 10° North 452 520 35,000  Level Kansas City Center
Mon 06:31:30 PM 40.1975 -94.8661 10° North 452 520 35,000  Level Kansas City Center
Mon 06:32:32 PM 40.3158 -94.8381 10° North 450 518 35,000  Level Kansas City Center
Mon 06:33:14 PM 40.3850 -94.8214 10° North 454 522 35,000  Level Minneapolis Center
Mon 06:34:16 PM 40.5089 -94.7931 10° North 454 522 35,000  Level Minneapolis Center
Mon 06:35:19 PM 40.6578 -94.7592 10° North 453 521 35,000  Level Minneapolis Center
Mon 06:36:21 PM 40.7811 -94.7297 10° North 453 521 35,000  Level Minneapolis Center
Mon 06:37:23 PM 40.9297 -94.6958 10° North 454 522 35,000  Level Minneapolis Center
Mon 06:38:24 PM 41.0292 -94.6722 10° North 454 522 35,000  Level Minneapolis Center
Mon 06:39:27 PM 41.1781 -94.6381 10° North 455 524 35,000  Level Minneapolis Center
Mon 06:40:29 PM 41.3025 -94.6083 10° North 454 522 35,000  Level Minneapolis Center
Mon 06:41:31 PM 41.4264 -94.5794 10° North 454 522 35,000  Level Minneapolis Center
Mon 06:42:45 PM 41.5514 -94.5497 10° North 456 525 35,000  Level Minneapolis Center
Mon 06:43:47 PM 41.7239 -94.5092 10° North 452 520 35,000  Level Minneapolis Center
Mon 06:44:49 PM 41.8494 -94.4800 10° North 457 526 35,000 -88 Level Minneapolis Center
Mon 06:46:03 PM 41.9744 -94.4500 10° North 457 526 34,800 -613 Descending Minneapolis Center
Mon 06:47:06 PM 42.1222 -94.4131 11° North 453 521 33,600 -864 Descending Minneapolis Center
Mon 06:48:08 PM 42.2453 -94.3847 10° North 450 518 33,000 -290 Descending Minneapolis Center
Mon 06:49:10 PM 42.3931 -94.3389 13° North 455 524 33,000  Level Minneapolis Center
Mon 06:50:12 PM 42.4911 -94.2536 33° Northeast 464 534 33,000  Level Minneapolis Center
Mon 06:51:14 PM 42.5986 -94.1600 33° Northeast 465 535 33,000  Level Minneapolis Center
Mon 06:52:28 PM 42.7500 -94.0269 33° Northeast 466 536 33,000  Level Minneapolis Center
Mon 06:53:30 PM 42.8567 -93.9303 34° Northeast 465 535 33,000  Level Minneapolis Center
Mon 06:54:32 PM 42.9653 -93.8344 33° Northeast 468 539 33,000  Level Minneapolis Center
Mon 06:55:34 PM 43.0717 -93.7403 33° Northeast 463 533 33,000  Level Minneapolis Center
Mon 06:56:36 PM 43.1781 -93.6447 33° Northeast 461 531 33,000 -145 Level Minneapolis Center
Mon 06:57:38 PM 43.2636 -93.5694 33° Northeast 459 528 32,700 -2,081 Descending Minneapolis Center
Mon 06:58:40 PM 43.4347 -93.5381 North 447 514 28,700 -3,429 Descending Minneapolis Center
Mon 06:59:44 PM 43.5703 -93.5258 North 447 514 25,500 -2,905 Descending Minneapolis Center
Mon 07:00:46 PM 43.6897 -93.5139 North 436 502 22,600 -2,710 Descending Minneapolis Center
Mon 07:01:48 PM 43.8028 -93.5033 North 414 476 19,900 -2,294 Descending Minneapolis Center
Mon 07:03:02 PM 43.9078 -93.4936 North 387 445 17,400 -2,382 Descending Minneapolis Center
Mon 07:04:04 PM 44.0289 -93.4814 North 367 422 14,500 -2,855 Descending Minneapolis Center
Mon 07:05:06 PM 44.1475 -93.4703 North 357 411 11,500 -1,694 Descending Minneapolis Center
Mon 07:06:08 PM 44.2214 -93.4628 North 335 386 11,000 -242 Descending Minneapolis Center
Mon 07:07:10 PM 44.3128 -93.4058 24° Northeast 308 354 11,000 -629 Level Minneapolis Center
Mon 07:08:12 PM 44.3900 -93.3631 22° Northeast 299 344 9,700 -1,500 Descending Minneapolis Center
Mon 07:09:14 PM 44.4644 -93.3231 21° North 288 331 7,900 -1,306 Descending Minneapolis Center
Mon 07:10:16 PM 44.5356 -93.2861 20° North 275 316 7,000 -823 Descending Minneapolis Center
Mon 07:11:18 PM 44.6072 -93.2481 21° North 232 267 6,200 -581 Descending Minneapolis Center
Mon 07:12:20 PM 44.6561 -93.2222 21° North 192 221 5,800 -1,016 Descending Minneapolis Center
Mon 07:13:22 PM 44.7036 -93.1967 21° North 186 214 4,100 -1,645 Descending Minneapolis Center

Login

Don't have an account? Register now (free) for customized features, flight alerts, and more!